createdAt,value
2022-10-10T03:54:19.039Z,9.9
2022-10-10T04:00:37.572Z,9.7
2022-10-10T04:06:31.002Z,10.8
2022-10-10T04:12:29.771Z,10.6
2022-10-10T04:18:34.727Z,10.2
2022-10-10T04:24:39.680Z,12.4
2022-10-10T04:30:36.342Z,10.9
2022-10-10T04:36:30.936Z,14.8
2022-10-10T04:42:26.819Z,11
2022-10-10T04:48:18.224Z,13.4
2022-10-10T04:54:16.604Z,11.2
2022-10-10T05:00:11.738Z,10.8
2022-10-10T05:06:14.196Z,12.3
2022-10-10T05:12:24.458Z,11.4
2022-10-10T05:18:18.685Z,11.2
2022-10-10T05:30:55.775Z,11.3
2022-10-10T05:37:03.789Z,14.7
2022-10-10T05:42:56.428Z,10.4
2022-10-10T05:49:01.892Z,12.9
2022-10-10T05:56:12.546Z,11.2
2022-10-10T06:02:20.231Z,12.8
2022-10-10T06:08:17.634Z,11.8
2022-10-10T06:14:10.182Z,12.9
2022-10-10T06:20:07.468Z,13
2022-10-10T06:26:01.134Z,13.5
2022-10-10T06:32:05.906Z,13
2022-10-10T06:38:09.460Z,15
2022-10-10T06:44:05.249Z,12.4
2022-10-10T06:49:56.013Z,12.2
2022-10-10T07:01:54.456Z,12.1
2022-10-10T07:07:55.329Z,12.8
2022-10-10T07:13:58.979Z,12.1
2022-10-10T07:19:49.909Z,16.7
2022-10-10T07:26:08.229Z,14.1
2022-10-10T07:32:00.586Z,11.7
2022-10-10T07:37:54.806Z,14.5
2022-10-10T07:43:49.603Z,11.6
2022-10-10T07:56:12.986Z,11.1
2022-10-10T08:02:03.883Z,10.7
2022-10-10T08:07:55.498Z,10.6
2022-10-10T08:13:45.951Z,12.5
2022-10-10T08:19:35.308Z,11.2
2022-10-10T08:25:24.240Z,13.4
2022-10-10T08:31:13.702Z,8.8
2022-10-10T08:37:03.610Z,9.8
2022-10-10T08:42:58.756Z,11.2
2022-10-10T08:48:48.517Z,9
2022-10-10T08:54:38.584Z,10.9
2022-10-10T09:00:27.904Z,11.1
2022-10-10T09:06:17.314Z,10.4
2022-10-10T09:12:06.752Z,12.3
2022-10-10T09:17:56.309Z,13.4
2022-10-10T09:23:44.500Z,10.3
2022-10-10T09:29:34.430Z,10.9
2022-10-10T09:35:23.203Z,9
2022-10-10T09:41:16.001Z,11.5
2022-10-10T09:47:07.211Z,9.9
2022-10-10T09:52:58.158Z,11.4
2022-10-10T09:58:48.647Z,10.8
2022-10-10T10:04:39.452Z,11
2022-10-10T10:10:30.193Z,14.1
2022-10-10T10:16:20.430Z,12
2022-10-10T10:22:13.302Z,10.3
2022-10-10T10:28:08.328Z,12.5
2022-10-10T10:33:59.347Z,10.3
2022-10-10T10:39:48.477Z,9.1
2022-10-10T10:45:39.212Z,11
2022-10-10T10:51:31.638Z,12.3
2022-10-10T10:59:16.914Z,9.3
2022-10-10T11:06:13.557Z,8.5
2022-10-10T11:12:08.876Z,12.2
2022-10-10T11:17:58.887Z,11.2
2022-10-10T11:23:48.501Z,10.3
2022-10-10T11:29:38.113Z,10.4
2022-10-10T11:35:27.591Z,11
2022-10-10T11:41:17.030Z,13
2022-10-10T11:47:06.114Z,14
2022-10-10T11:52:56.009Z,13.2
2022-10-10T11:58:46.669Z,10.7
2022-10-10T12:04:35.950Z,12.1
2022-10-10T12:10:26.528Z,11.2
2022-10-10T12:16:16.454Z,11.1
2022-10-10T12:22:06.204Z,9.4
2022-10-10T12:27:57.088Z,10.3
2022-10-10T12:33:47.423Z,10.6
2022-10-10T12:39:37.112Z,15.1
2022-10-10T12:45:29.949Z,12.3
2022-10-10T12:51:22.154Z,11.5
2022-10-10T12:57:13.307Z,11.5
2022-10-10T13:03:07.488Z,10.8
2022-10-10T13:08:59.555Z,12
2022-10-10T13:14:50.296Z,11.2
2022-10-10T13:20:42.682Z,11.9
2022-10-10T13:26:33.978Z,9.8
2022-10-10T13:32:26.231Z,14.1
2022-10-10T13:38:17.473Z,11.8
2022-10-10T13:44:08.992Z,13.9
2022-10-10T13:50:01.365Z,9.2
2022-10-10T13:55:55.649Z,12.9
2022-10-10T14:02:07.576Z,11.2
2022-10-10T14:08:13.007Z,11.6
2022-10-10T14:14:06.078Z,12.6
2022-10-10T14:19:59.658Z,12
2022-10-10T14:25:53.349Z,21.2
2022-10-10T14:31:50.075Z,13.1
2022-10-10T14:37:46.647Z,11.6
2022-10-10T14:43:42.297Z,14.6
2022-10-10T14:49:35.319Z,15.7
2022-10-10T14:55:34.561Z,14.6
2022-10-10T15:01:24.317Z,17.9
2022-10-10T15:07:22.356Z,18.5
2022-10-10T15:13:11.124Z,18.9
2022-10-10T15:19:00.306Z,17.3
2022-10-10T15:24:58.785Z,16.1
2022-10-10T15:30:52.025Z,15.3
2022-10-10T15:36:45.588Z,16
2022-10-10T15:42:37.829Z,17.4
2022-10-10T15:48:35.203Z,15.1
2022-10-10T15:54:26.121Z,17.5
2022-10-10T16:00:19.460Z,15.5
2022-10-10T16:06:12.553Z,17.4
2022-10-10T16:12:05.719Z,17.2
2022-10-10T16:18:13.137Z,19
2022-10-10T16:24:04.515Z,17
2022-10-10T16:30:10.281Z,18.4
2022-10-10T16:36:28.055Z,18
2022-10-10T16:42:18.692Z,16.9
2022-10-10T16:48:11.694Z,19.8
2022-10-10T16:54:10.697Z,20
2022-10-10T17:00:02.901Z,18
2022-10-10T17:05:55.189Z,15.5
2022-10-10T17:12:00.482Z,19.3
2022-10-10T17:17:51.361Z,14.2
2022-10-10T17:23:41.141Z,13.9
2022-10-10T17:29:39.009Z,23.2
2022-10-10T17:35:34.780Z,17.4
2022-10-10T17:41:26.001Z,14.8
2022-10-10T17:47:17.307Z,17
2022-10-10T17:53:24.636Z,15.1
2022-10-10T17:59:14.412Z,19
2022-10-10T18:05:06.511Z,18.2
2022-10-10T18:10:58.909Z,19.3
2022-10-10T18:16:57.574Z,11.9
2022-10-10T18:22:50.490Z,18.5
2022-10-10T18:28:41.009Z,19.9
2022-10-10T18:34:33.960Z,13.1
2022-10-10T18:40:27.468Z,20.3
2022-10-10T18:46:19.623Z,14.2
2022-10-10T18:52:10.854Z,14.3
2022-10-10T18:58:02.834Z,15
2022-10-10T19:03:52.222Z,18
2022-10-10T19:09:43.668Z,17.1
2022-10-10T19:15:35.611Z,19.9
2022-10-10T19:21:29.981Z,16.4
2022-10-10T19:27:21.778Z,15.2
2022-10-10T19:33:13.917Z,13.3
2022-10-10T19:39:06.447Z,14.2
2022-10-10T19:44:59.894Z,14.7
2022-10-10T19:50:56.795Z,13.7
2022-10-10T19:57:01.720Z,16.1
2022-10-10T20:02:52.134Z,20
2022-10-10T20:08:44.261Z,20.9
2022-10-10T20:14:34.630Z,19.1
2022-10-10T20:20:26.023Z,22.4
2022-10-10T20:26:16.724Z,17.4
2022-10-10T20:32:07.534Z,16
2022-10-10T20:38:00.378Z,17.3
2022-10-10T20:44:14.125Z,13.5
2022-10-10T20:50:05.566Z,12.6
2022-10-10T20:55:59.021Z,13.1
2022-10-10T21:01:54.077Z,12.8
2022-10-10T21:07:55.501Z,12.3
2022-10-10T21:14:02.688Z,17.3
2022-10-10T21:20:08.838Z,15.1
2022-10-10T21:26:09.727Z,13.8
2022-10-10T21:32:02.347Z,18.4
2022-10-10T21:38:00.581Z,16.4
2022-10-10T21:43:54.952Z,15.5
2022-10-10T21:49:50.016Z,18.2
